sensor_id;sensor_type;location;lat;lon;timestamp;pressure;altitude;pressure_sealevel;temperature;humidity
60479;BME280;46321;48.398;11.754;2023-07-22T00:02:13;96556.69;;;15.54;67.94
60479;BME280;46321;48.398;11.754;2023-07-22T00:04:39;96554.84;;;15.55;68.13
60479;BME280;46321;48.398;11.754;2023-07-22T00:07:04;96553.19;;;15.47;68.85
60479;BME280;46321;48.398;11.754;2023-07-22T00:09:32;96546.66;;;15.43;68.50
60479;BME280;46321;48.398;11.754;2023-07-22T00:11:58;96554.03;;;15.41;68.65
60479;BME280;46321;48.398;11.754;2023-07-22T00:14:24;96559.34;;;15.34;68.96
60479;BME280;46321;48.398;11.754;2023-07-22T00:16:49;96553.59;;;15.30;69.51
60479;BME280;46321;48.398;11.754;2023-07-22T00:19:14;96549.09;;;15.31;69.29
60479;BME280;46321;48.398;11.754;2023-07-22T00:21:39;96555.47;;;15.23;69.59
60479;BME280;46321;48.398;11.754;2023-07-22T00:24:05;96550.72;;;15.18;69.43
60479;BME280;46321;48.398;11.754;2023-07-22T00:26:30;96556.84;;;15.19;69.19
60479;BME280;46321;48.398;11.754;2023-07-22T00:28:55;96549.50;;;15.14;69.10
60479;BME280;46321;48.398;11.754;2023-07-22T00:31:21;96557.28;;;15.16;69.21
60479;BME280;46321;48.398;11.754;2023-07-22T00:33:46;96553.19;;;15.13;68.92
60479;BME280;46321;48.398;11.754;2023-07-22T00:36:12;96542.50;;;15.06;68.97
60479;BME280;46321;48.398;11.754;2023-07-22T00:38:37;96544.56;;;15.04;69.46
60479;BME280;46321;48.398;11.754;2023-07-22T00:41:02;96538.81;;;15.01;69.01
60479;BME280;46321;48.398;11.754;2023-07-22T00:43:30;96544.53;;;14.97;69.83
60479;BME280;46321;48.398;11.754;2023-07-22T00:45:55;96533.06;;;14.97;69.78
60479;BME280;46321;48.398;11.754;2023-07-22T00:48:20;96547.41;;;14.96;69.93
60479;BME280;46321;48.398;11.754;2023-07-22T00:50:46;96542.25;;;14.87;70.55
60479;BME280;46321;48.398;11.754;2023-07-22T00:53:11;96542.22;;;14.74;70.90
60479;BME280;46321;48.398;11.754;2023-07-22T00:55:39;96546.91;;;14.79;70.07
60479;BME280;46321;48.398;11.754;2023-07-22T00:58:04;96540.78;;;14.78;70.35
60479;BME280;46321;48.398;11.754;2023-07-22T01:00:30;96542.00;;;14.75;71.02
60479;BME280;46321;48.398;11.754;2023-07-22T01:02:55;96539.31;;;14.69;70.45
60479;BME280;46321;48.398;11.754;2023-07-22T01:05:21;96537.28;;;14.71;70.95
60479;BME280;46321;48.398;11.754;2023-07-22T01:07:46;96542.81;;;14.69;71.62
60479;BME280;46321;48.398;11.754;2023-07-22T01:10:13;96535.00;;;14.68;71.24
60479;BME280;46321;48.398;11.754;2023-07-22T01:12:38;96529.25;;;14.57;70.53
60479;BME280;46321;48.398;11.754;2023-07-22T01:15:04;96530.06;;;14.58;70.72
60479;BME280;46321;48.398;11.754;2023-07-22T01:17:32;96530.22;;;14.42;71.77
60479;BME280;46321;48.398;11.754;2023-07-22T01:19:58;96529.16;;;14.37;72.06
60479;BME280;46321;48.398;11.754;2023-07-22T01:22:24;96523.63;;;14.38;72.50
60479;BME280;46321;48.398;11.754;2023-07-22T01:24:50;96522.81;;;14.38;71.51
60479;BME280;46321;48.398;11.754;2023-07-22T01:27:15;96525.63;;;14.29;72.61
60479;BME280;46321;48.398;11.754;2023-07-22T01:29:41;96522.56;;;14.26;72.67
60479;BME280;46321;48.398;11.754;2023-07-22T01:32:06;96526.69;;;14.28;72.14
60479;BME280;46321;48.398;11.754;2023-07-22T01:34:31;96524.84;;;14.29;71.77
60479;BME280;46321;48.398;11.754;2023-07-22T01:36:57;96521.34;;;14.28;71.93
60479;BME280;46321;48.398;11.754;2023-07-22T01:39:22;96524.00;;;14.28;71.69
60479;BME280;46321;48.398;11.754;2023-07-22T01:41:48;96524.22;;;14.27;72.23
60479;BME280;46321;48.398;11.754;2023-07-22T01:44:14;96524.41;;;14.25;72.21
60479;BME280;46321;48.398;11.754;2023-07-22T01:46:39;96526.66;;;14.22;71.46
60479;BME280;46321;48.398;11.754;2023-07-22T01:49:09;96532.34;;;14.18;71.83
60479;BME280;46321;48.398;11.754;2023-07-22T01:51:35;96522.88;;;14.09;72.66
60479;BME280;46321;48.398;11.754;2023-07-22T01:54:02;96532.72;;;14.08;72.30
60479;BME280;46321;48.398;11.754;2023-07-22T01:56:28;96534.94;;;14.05;72.15
60479;BME280;46321;48.398;11.754;2023-07-22T01:58:53;96528.56;;;13.99;72.64
60479;BME280;46321;48.398;11.754;2023-07-22T02:01:18;96532.44;;;13.96;72.35
60479;BME280;46321;48.398;11.754;2023-07-22T02:03:43;96535.94;;;13.97;72.25
60479;BME280;46321;48.398;11.754;2023-07-22T02:06:09;96533.81;;;13.85;72.99
60479;BME280;46321;48.398;11.754;2023-07-22T02:08:34;96530.91;;;13.80;73.60
60479;BME280;46321;48.398;11.754;2023-07-22T02:11:06;96538.22;;;13.71;73.66
60479;BME280;46321;48.398;11.754;2023-07-22T02:13:33;96538.69;;;13.75;73.35
60479;BME280;46321;48.398;11.754;2023-07-22T02:15:59;96539.47;;;13.76;73.81
60479;BME280;46321;48.398;11.754;2023-07-22T02:18:25;96537.00;;;13.74;73.97
60479;BME280;46321;48.398;11.754;2023-07-22T02:20:50;96530.34;;;13.56;74.55
60479;BME280;46321;48.398;11.754;2023-07-22T02:23:15;96533.56;;;13.51;74.70
60479;BME280;46321;48.398;11.754;2023-07-22T02:25:41;96541.72;;;13.50;74.58
60479;BME280;46321;48.398;11.754;2023-07-22T02:28:06;96543.81;;;13.55;74.76
60479;BME280;46321;48.398;11.754;2023-07-22T02:30:35;96546.41;;;13.48;74.71
60479;BME280;46321;48.398;11.754;2023-07-22T02:33:01;96553.13;;;13.44;75.19
60479;BME280;46321;48.398;11.754;2023-07-22T02:35:27;96541.88;;;13.42;74.95
60479;BME280;46321;48.398;11.754;2023-07-22T02:37:52;96542.69;;;13.42;75.11
60479;BME280;46321;48.398;11.754;2023-07-22T02:40:18;96547.13;;;13.35;75.76
60479;BME280;46321;48.398;11.754;2023-07-22T02:42:43;96539.16;;;13.35;75.58
60479;BME280;46321;48.398;11.754;2023-07-22T02:45:09;96545.22;;;13.28;75.88
60479;BME280;46321;48.398;11.754;2023-07-22T02:47:34;96547.72;;;13.30;76.06
60479;BME280;46321;48.398;11.754;2023-07-22T02:50:00;96548.72;;;13.29;75.67
60479;BME280;46321;48.398;11.754;2023-07-22T02:52:25;96562.13;;;13.21;75.85
60479;BME280;46321;48.398;11.754;2023-07-22T02:55:10;96549.34;;;13.09;76.20
60479;BME280;46321;48.398;11.754;2023-07-22T02:57:37;96561.56;;;13.03;76.94
60479;BME280;46321;48.398;11.754;2023-07-22T03:00:03;96561.09;;;13.00;76.89
60479;BME280;46321;48.398;11.754;2023-07-22T03:02:39;96561.56;;;13.03;76.77
60479;BME280;46321;48.398;11.754;2023-07-22T03:05:06;96561.75;;;13.02;76.76
60479;BME280;46321;48.398;11.754;2023-07-22T03:07:38;96563.22;;;13.04;76.30
60479;BME280;46321;48.398;11.754;2023-07-22T03:10:05;96568.28;;;12.99;76.52
60479;BME280;46321;48.398;11.754;2023-07-22T03:12:30;96569.09;;;13.00;77.36
60479;BME280;46321;48.398;11.754;2023-07-22T03:14:55;96571.66;;;12.93;77.80
60479;BME280;46321;48.398;11.754;2023-07-22T03:17:21;96563.69;;;12.93;77.25
60479;BME280;46321;48.398;11.754;2023-07-22T03:19:46;96566.81;;;12.97;76.54
60479;BME280;46321;48.398;11.754;2023-07-22T03:22:13;96568.38;;;12.91;77.10
60479;BME280;46321;48.398;11.754;2023-07-22T03:24:39;96571.66;;;12.93;76.90
60479;BME280;46321;48.398;11.754;2023-07-22T03:27:05;96573.97;;;12.96;76.41
60479;BME280;46321;48.398;11.754;2023-07-22T03:29:31;96578.38;;;12.89;77.37
60479;BME280;46321;48.398;11.754;2023-07-22T03:31:56;96577.19;;;12.91;76.63
60479;BME280;46321;48.398;11.754;2023-07-22T03:34:22;96572.44;;;12.87;77.68
60479;BME280;46321;48.398;11.754;2023-07-22T03:36:48;96582.69;;;12.90;77.07
60479;BME280;46321;48.398;11.754;2023-07-22T03:39:14;96571.66;;;12.93;77.20
60479;BME280;46321;48.398;11.754;2023-07-22T03:41:39;96574.44;;;12.85;78.01
60479;BME280;46321;48.398;11.754;2023-07-22T03:44:04;96579.13;;;12.82;78.59
60479;BME280;46321;48.398;11.754;2023-07-22T03:46:29;96566.28;;;12.86;78.31
60479;BME280;46321;48.398;11.754;2023-07-22T03:48:55;96568.56;;;12.89;77.81
60479;BME280;46321;48.398;11.754;2023-07-22T03:51:20;96565.72;;;12.91;77.55
60479;BME280;46321;48.398;11.754;2023-07-22T03:53:45;96574.53;;;12.91;77.52
60479;BME280;46321;48.398;11.754;2023-07-22T03:56:10;96580.66;;;12.92;78.48
60479;BME280;46321;48.398;11.754;2023-07-22T03:58:36;96589.28;;;12.94;78.95
60479;BME280;46321;48.398;11.754;2023-07-22T04:01:01;96585.34;;;12.90;79.25
60479;BME280;46321;48.398;11.754;2023-07-22T04:03:26;96585.78;;;12.93;79.18
60479;BME280;46321;48.398;11.754;2023-07-22T04:05:56;96582.94;;;12.95;78.29
60479;BME280;46321;48.398;11.754;2023-07-22T04:08:21;96582.94;;;12.95;79.18
60479;BME280;46321;48.398;11.754;2023-07-22T04:10:54;96584.41;;;12.98;79.01
60479;BME280;46321;48.398;11.754;2023-07-22T04:13:19;96587.88;;;12.98;78.88
60479;BME280;46321;48.398;11.754;2023-07-22T04:15:45;96591.53;;;12.97;79.08
60479;BME280;46321;48.398;11.754;2023-07-22T04:18:10;96591.53;;;12.97;78.50
60479;BME280;46321;48.398;11.754;2023-07-22T04:20:35;96583.81;;;13.02;78.45
60479;BME280;46321;48.398;11.754;2023-07-22T04:23:01;96597.38;;;13.08;78.79
60479;BME280;46321;48.398;11.754;2023-07-22T04:25:26;96604.78;;;13.12;79.06
60479;BME280;46321;48.398;11.754;2023-07-22T04:27:51;96604.88;;;13.19;78.69
60479;BME280;46321;48.398;11.754;2023-07-22T04:30:17;96608.03;;;13.30;78.53
60479;BME280;46321;48.398;11.754;2023-07-22T04:32:48;96607.44;;;13.34;78.27
60479;BME280;46321;48.398;11.754;2023-07-22T04:35:14;96615.03;;;13.37;78.01
60479;BME280;46321;48.398;11.754;2023-07-22T04:37:42;96613.19;;;13.38;78.54
60479;BME280;46321;48.398;11.754;2023-07-22T04:40:08;96611.44;;;13.45;78.01
60479;BME280;46321;48.398;11.754;2023-07-22T04:42:34;96609.41;;;13.47;78.30
60479;BME280;46321;48.398;11.754;2023-07-22T04:44:59;96601.94;;;13.58;78.03
60479;BME280;46321;48.398;11.754;2023-07-22T04:47:25;96609.81;;;13.66;78.24
60479;BME280;46321;48.398;11.754;2023-07-22T04:49:50;96607.38;;;13.71;77.97
60479;BME280;46321;48.398;11.754;2023-07-22T04:52:15;96615.03;;;13.81;77.84
60479;BME280;46321;48.398;11.754;2023-07-22T04:54:41;96606.69;;;13.91;78.21
60479;BME280;46321;48.398;11.754;2023-07-22T04:57:06;96599.63;;;14.05;78.45
60479;BME280;46321;48.398;11.754;2023-07-22T04:59:32;96599.94;;;14.17;77.91
60479;BME280;46321;48.398;11.754;2023-07-22T05:01:57;96596.91;;;14.27;78.03
60479;BME280;46321;48.398;11.754;2023-07-22T05:04:22;96595.47;;;14.31;78.25
60479;BME280;46321;48.398;11.754;2023-07-22T05:06:48;96594.13;;;14.42;78.25
60479;BME280;46321;48.398;11.754;2023-07-22T05:09:13;96590.09;;;14.53;77.90
60479;BME280;46321;48.398;11.754;2023-07-22T05:11:38;96590.72;;;14.62;77.90
60479;BME280;46321;48.398;11.754;2023-07-22T05:14:03;96596.13;;;14.76;77.52
60479;BME280;46321;48.398;11.754;2023-07-22T05:16:30;96599.88;;;14.88;76.71
60479;BME280;46321;48.398;11.754;2023-07-22T05:18:55;96595.41;;;15.03;76.97
60479;BME280;46321;48.398;11.754;2023-07-22T05:21:20;96600.16;;;15.14;76.79
60479;BME280;46321;48.398;11.754;2023-07-22T05:23:46;96605.69;;;15.26;76.66
60479;BME280;46321;48.398;11.754;2023-07-22T05:26:11;96611.03;;;15.33;76.30
60479;BME280;46321;48.398;11.754;2023-07-22T05:28:36;96609.00;;;15.42;76.91
60479;BME280;46321;48.398;11.754;2023-07-22T05:31:01;96616.78;;;15.50;76.32
60479;BME280;46321;48.398;11.754;2023-07-22T05:33:27;96607.19;;;15.63;75.93
60479;BME280;46321;48.398;11.754;2023-07-22T05:35:52;96615.19;;;15.63;76.25
60479;BME280;46321;48.398;11.754;2023-07-22T05:38:17;96606.75;;;15.73;76.38
60479;BME280;46321;48.398;11.754;2023-07-22T05:40:42;96602.03;;;15.82;76.16
60479;BME280;46321;48.398;11.754;2023-07-22T05:43:08;96609.00;;;15.89;76.02
60479;BME280;46321;48.398;11.754;2023-07-22T05:45:33;96602.00;;;15.95;75.63
60479;BME280;46321;48.398;11.754;2023-07-22T05:47:58;96611.09;;;16.08;75.60
60479;BME280;46321;48.398;11.754;2023-07-22T05:50:24;96618.84;;;16.23;75.49
60479;BME280;46321;48.398;11.754;2023-07-22T05:52:49;96614.72;;;16.34;74.91
60479;BME280;46321;48.398;11.754;2023-07-22T05:55:15;96617.97;;;16.43;75.07
60479;BME280;46321;48.398;11.754;2023-07-22T05:57:41;96620.63;;;16.56;75.27
60479;BME280;46321;48.398;11.754;2023-07-22T06:00:06;96619.34;;;16.73;75.07
60479;BME280;46321;48.398;11.754;2023-07-22T06:02:33;96605.09;;;16.86;73.89
60479;BME280;46321;48.398;11.754;2023-07-22T06:04:59;96607.94;;;16.98;73.64
60479;BME280;46321;48.398;11.754;2023-07-22T06:07:24;96613.81;;;17.13;73.65
60479;BME280;46321;48.398;11.754;2023-07-22T06:09:50;96606.97;;;17.24;72.39
60479;BME280;46321;48.398;11.754;2023-07-22T06:12:15;96612.84;;;17.40;72.71
60479;BME280;46321;48.398;11.754;2023-07-22T06:14:41;96611.94;;;17.53;71.55
60479;BME280;46321;48.398;11.754;2023-07-22T06:17:06;96612.22;;;17.70;71.67
60479;BME280;46321;48.398;11.754;2023-07-22T06:19:32;96613.16;;;17.83;70.45
60479;BME280;46321;48.398;11.754;2023-07-22T06:21:57;96608.88;;;18.01;70.21
60479;BME280;46321;48.398;11.754;2023-07-22T06:24:22;96604.00;;;18.16;69.37
60479;BME280;46321;48.398;11.754;2023-07-22T06:26:47;96605.75;;;18.29;69.14
60479;BME280;46321;48.398;11.754;2023-07-22T06:29:13;96603.28;;;18.47;68.53
60479;BME280;46321;48.398;11.754;2023-07-22T06:31:38;96611.25;;;18.53;67.47
60479;BME280;46321;48.398;11.754;2023-07-22T06:34:03;96607.97;;;18.51;66.67
60479;BME280;46321;48.398;11.754;2023-07-22T06:36:28;96612.44;;;18.58;66.94
60479;BME280;46321;48.398;11.754;2023-07-22T06:38:54;96616.47;;;18.67;65.73
60479;BME280;46321;48.398;11.754;2023-07-22T06:41:20;96620.09;;;18.73;65.22
60479;BME280;46321;48.398;11.754;2023-07-22T06:43:45;96618.97;;;18.81;65.25
60479;BME280;46321;48.398;11.754;2023-07-22T06:46:11;96624.84;;;18.90;65.29
60479;BME280;46321;48.398;11.754;2023-07-22T06:48:36;96626.31;;;19.04;64.93
60479;BME280;46321;48.398;11.754;2023-07-22T06:51:01;96626.81;;;19.13;64.49
60479;BME280;46321;48.398;11.754;2023-07-22T06:53:27;96630.84;;;19.22;64.49
60479;BME280;46321;48.398;11.754;2023-07-22T06:55:52;96639.19;;;19.33;63.55
60479;BME280;46321;48.398;11.754;2023-07-22T06:58:20;96639.59;;;19.49;63.02
60479;BME280;46321;48.398;11.754;2023-07-22T07:00:48;96643.44;;;19.53;62.44
60479;BME280;46321;48.398;11.754;2023-07-22T07:03:13;96639.38;;;19.62;61.35
60479;BME280;46321;48.398;11.754;2023-07-22T07:05:38;96631.56;;;19.73;60.76
60479;BME280;46321;48.398;11.754;2023-07-22T07:08:06;96634.88;;;19.87;59.68
60479;BME280;46321;48.398;11.754;2023-07-22T07:10:36;96634.41;;;20.02;58.88
60479;BME280;46321;48.398;11.754;2023-07-22T07:13:03;96634.16;;;20.03;57.92
60479;BME280;46321;48.398;11.754;2023-07-22T07:15:28;96636.06;;;20.15;58.95
60479;BME280;46321;48.398;11.754;2023-07-22T07:17:54;96642.25;;;20.28;55.94
60479;BME280;46321;48.398;11.754;2023-07-22T07:20:19;96634.78;;;20.42;56.79
60479;BME280;46321;48.398;11.754;2023-07-22T07:22:44;96633.38;;;20.51;55.66
60479;BME280;46321;48.398;11.754;2023-07-22T07:25:10;96636.97;;;20.69;54.67
60479;BME280;46321;48.398;11.754;2023-07-22T07:27:36;96636.00;;;20.87;54.59
60479;BME280;46321;48.398;11.754;2023-07-22T07:30:02;96640.53;;;20.99;53.46
60479;BME280;46321;48.398;11.754;2023-07-22T07:32:27;96639.44;;;21.12;53.40
60479;BME280;46321;48.398;11.754;2023-07-22T07:34:52;96637.44;;;21.19;51.29
60479;BME280;46321;48.398;11.754;2023-07-22T07:37:18;96638.19;;;21.32;52.26
60479;BME280;46321;48.398;11.754;2023-07-22T07:39:44;96640.44;;;21.52;51.06
60479;BME280;46321;48.398;11.754;2023-07-22T07:42:09;96637.09;;;21.62;50.24
60479;BME280;46321;48.398;11.754;2023-07-22T07:44:34;96630.59;;;21.75;48.94
60479;BME280;46321;48.398;11.754;2023-07-22T07:46:59;96635.81;;;21.82;48.03
60479;BME280;46321;48.398;11.754;2023-07-22T07:49:24;96638.13;;;21.90;47.96
60479;BME280;46321;48.398;11.754;2023-07-22T07:51:50;96637.38;;;22.12;47.55
60479;BME280;46321;48.398;11.754;2023-07-22T07:54:15;96636.03;;;22.32;47.37
60479;BME280;46321;48.398;11.754;2023-07-22T07:56:40;96635.28;;;22.37;46.29
60479;BME280;46321;48.398;11.754;2023-07-22T07:59:05;96635.56;;;22.35;46.42
60479;BME280;46321;48.398;11.754;2023-07-22T08:01:33;96634.56;;;22.41;45.09
60479;BME280;46321;48.398;11.754;2023-07-22T08:03:59;96641.03;;;22.63;44.62
60479;BME280;46321;48.398;11.754;2023-07-22T08:06:24;96642.97;;;22.85;46.04
60479;BME280;46321;48.398;11.754;2023-07-22T08:08:49;96639.06;;;22.98;44.44
60479;BME280;46321;48.398;11.754;2023-07-22T08:11:15;96639.22;;;23.14;44.96
60479;BME280;46321;48.398;11.754;2023-07-22T08:13:41;96632.41;;;23.33;42.13
60479;BME280;46321;48.398;11.754;2023-07-22T08:16:09;96633.28;;;23.39;42.61
60479;BME280;46321;48.398;11.754;2023-07-22T08:18:35;96640.50;;;23.56;42.08
60479;BME280;46321;48.398;11.754;2023-07-22T08:21:02;96637.38;;;23.70;41.09
60479;BME280;46321;48.398;11.754;2023-07-22T08:23:28;96637.28;;;23.92;42.14
60479;BME280;46321;48.398;11.754;2023-07-22T08:25:53;96634.47;;;24.15;40.60
60479;BME280;46321;48.398;11.754;2023-07-22T08:28:19;96627.03;;;24.32;38.94
60479;BME280;46321;48.398;11.754;2023-07-22T08:30:44;96630.66;;;24.54;39.14
60479;BME280;46321;48.398;11.754;2023-07-22T08:33:11;96632.31;;;24.60;38.43
60479;BME280;46321;48.398;11.754;2023-07-22T08:35:39;96626.22;;;24.91;38.78
60479;BME280;46321;48.398;11.754;2023-07-22T08:38:05;96631.16;;;24.99;36.61
60479;BME280;46321;48.398;11.754;2023-07-22T08:40:35;96633.09;;;25.20;37.15
60479;BME280;46321;48.398;11.754;2023-07-22T08:43:02;96629.06;;;25.43;36.70
60479;BME280;46321;48.398;11.754;2023-07-22T08:45:29;96631.25;;;25.57;36.80
60479;BME280;46321;48.398;11.754;2023-07-22T08:47:58;96630.44;;;25.61;36.95
60479;BME280;46321;48.398;11.754;2023-07-22T08:50:26;96625.34;;;25.70;36.57
60479;BME280;46321;48.398;11.754;2023-07-22T08:52:54;96631.84;;;26.01;36.38
60479;BME280;46321;48.398;11.754;2023-07-22T08:55:19;96633.19;;;26.03;34.33
60479;BME280;46321;48.398;11.754;2023-07-22T08:57:46;96627.19;;;26.27;34.69
60479;BME280;46321;48.398;11.754;2023-07-22T09:00:13;96617.66;;;26.61;35.15
60479;BME280;46321;48.398;11.754;2023-07-22T09:02:39;96621.44;;;26.55;33.76
60479;BME280;46321;48.398;11.754;2023-07-22T09:05:06;96623.13;;;26.30;34.21
60479;BME280;46321;48.398;11.754;2023-07-22T09:07:33;96630.34;;;26.71;34.17
60479;BME280;46321;48.398;11.754;2023-07-22T09:09:59;96631.66;;;26.84;32.99
60479;BME280;46321;48.398;11.754;2023-07-22T09:12:25;96635.19;;;26.85;32.47
60479;BME280;46321;48.398;11.754;2023-07-22T09:14:51;96632.00;;;26.67;32.42
60479;BME280;46321;48.398;11.754;2023-07-22T09:17:17;96630.56;;;26.85;32.16
60479;BME280;46321;48.398;11.754;2023-07-22T09:19:42;96615.56;;;27.04;31.83
60479;BME280;46321;48.398;11.754;2023-07-22T09:22:07;96623.72;;;26.98;31.38
60479;BME280;46321;48.398;11.754;2023-07-22T09:24:33;96620.44;;;27.12;32.65
60479;BME280;46321;48.398;11.754;2023-07-22T09:26:58;96617.75;;;27.47;32.44
60479;BME280;46321;48.398;11.754;2023-07-22T09:29:34;96614.03;;;27.73;31.18
60479;BME280;46321;48.398;11.754;2023-07-22T09:32:00;96607.78;;;27.77;30.99
60479;BME280;46321;48.398;11.754;2023-07-22T09:34:25;96620.81;;;28.10;32.03
60479;BME280;46321;48.398;11.754;2023-07-22T09:36:55;96618.41;;;28.04;30.60
60479;BME280;46321;48.398;11.754;2023-07-22T09:39:21;96611.97;;;28.24;29.89
60479;BME280;46321;48.398;11.754;2023-07-22T09:41:47;96606.72;;;28.33;29.80
60479;BME280;46321;48.398;11.754;2023-07-22T09:44:13;96608.28;;;28.64;30.29
60479;BME280;46321;48.398;11.754;2023-07-22T09:46:38;96595.13;;;29.15;30.03
60479;BME280;46321;48.398;11.754;2023-07-22T09:49:05;96608.59;;;28.08;28.65
60479;BME280;46321;48.398;11.754;2023-07-22T09:51:35;96613.22;;;28.32;30.00
60479;BME280;46321;48.398;11.754;2023-07-22T09:54:03;96611.00;;;28.64;28.16
60479;BME280;46321;48.398;11.754;2023-07-22T09:56:28;96600.59;;;28.90;29.45
60479;BME280;46321;48.398;11.754;2023-07-22T09:58:54;96601.47;;;29.10;27.34
60479;BME280;46321;48.398;11.754;2023-07-22T10:01:23;96605.38;;;28.30;28.04
60479;BME280;46321;48.398;11.754;2023-07-22T10:03:53;96602.13;;;28.77;26.94
60479;BME280;46321;48.398;11.754;2023-07-22T10:06:21;96615.19;;;29.00;27.02
60479;BME280;46321;48.398;11.754;2023-07-22T10:08:49;96599.59;;;28.62;26.47
60479;BME280;46321;48.398;11.754;2023-07-22T10:11:15;96593.97;;;28.77;26.77
60479;BME280;46321;48.398;11.754;2023-07-22T10:13:40;96598.22;;;29.08;27.15
60479;BME280;46321;48.398;11.754;2023-07-22T10:16:05;96582.41;;;28.86;27.61
60479;BME280;46321;48.398;11.754;2023-07-22T10:18:32;96589.66;;;28.76;27.44
60479;BME280;46321;48.398;11.754;2023-07-22T10:20:59;96592.66;;;28.50;28.00
60479;BME280;46321;48.398;11.754;2023-07-22T10:23:26;96584.94;;;29.01;28.44
60479;BME280;46321;48.398;11.754;2023-07-22T10:25:52;96585.72;;;29.26;25.86
60479;BME280;46321;48.398;11.754;2023-07-22T10:28:20;96588.94;;;28.90;27.91
60479;BME280;46321;48.398;11.754;2023-07-22T10:30:46;96579.16;;;28.64;27.78
60479;BME280;46321;48.398;11.754;2023-07-22T10:33:11;96576.78;;;28.57;27.54
60479;BME280;46321;48.398;11.754;2023-07-22T10:35:42;96581.25;;;28.48;28.98
60479;BME280;46321;48.398;11.754;2023-07-22T10:38:11;96572.81;;;28.94;28.01
60479;BME280;46321;48.398;11.754;2023-07-22T10:43:11;96569.88;;;29.09;28.22
60479;BME280;46321;48.398;11.754;2023-07-22T10:45:42;96566.66;;;29.07;28.71
60479;BME280;46321;48.398;11.754;2023-07-22T10:48:09;96564.50;;;29.23;28.33
60479;BME280;46321;48.398;11.754;2023-07-22T10:53:12;96571.88;;;28.79;27.71
60479;BME280;46321;48.398;11.754;2023-07-22T11:11:57;96548.22;;;28.06;27.27
60479;BME280;46321;48.398;11.754;2023-07-22T11:14:28;96548.56;;;27.99;29.55
60479;BME280;46321;48.398;11.754;2023-07-22T11:16:56;96550.75;;;27.97;27.79
60479;BME280;46321;48.398;11.754;2023-07-22T11:19:23;96544.59;;;27.91;27.61
60479;BME280;46321;48.398;11.754;2023-07-22T11:21:50;96537.22;;;27.92;28.20
60479;BME280;46321;48.398;11.754;2023-07-22T11:24:16;96538.00;;;27.97;27.12
60479;BME280;46321;48.398;11.754;2023-07-22T11:26:42;96545.41;;;27.57;28.37
60479;BME280;46321;48.398;11.754;2023-07-22T11:29:08;96537.75;;;27.59;28.47
60479;BME280;46321;48.398;11.754;2023-07-22T11:31:45;96528.91;;;27.07;28.78
60479;BME280;46321;48.398;11.754;2023-07-22T11:34:19;96525.25;;;27.28;28.47
60479;BME280;46321;48.398;11.754;2023-07-22T11:36:46;96526.81;;;27.34;28.03
60479;BME280;46321;48.398;11.754;2023-07-22T11:39:13;96526.22;;;27.42;27.71
60479;BME280;46321;48.398;11.754;2023-07-22T11:41:38;96521.56;;;27.48;27.64
60479;BME280;46321;48.398;11.754;2023-07-22T11:44:06;96529.41;;;27.50;27.35
60479;BME280;46321;48.398;11.754;2023-07-22T11:46:35;96521.50;;;27.24;27.95
60479;BME280;46321;48.398;11.754;2023-07-22T11:49:00;96518.56;;;27.50;28.52
60479;BME280;46321;48.398;11.754;2023-07-22T11:51:26;96514.13;;;27.59;28.74
60479;BME280;46321;48.398;11.754;2023-07-22T11:53:53;96505.63;;;27.66;28.38
60479;BME280;46321;48.398;11.754;2023-07-22T11:56:21;96506.69;;;27.70;28.16
60479;BME280;46321;48.398;11.754;2023-07-22T11:58:55;96509.66;;;27.44;28.34
60479;BME280;46321;48.398;11.754;2023-07-22T12:01:21;96507.72;;;27.44;27.82
60479;BME280;46321;48.398;11.754;2023-07-22T12:03:47;96494.97;;;27.40;29.31
60479;BME280;46321;48.398;11.754;2023-07-22T12:06:13;96494.75;;;27.36;28.38
60479;BME280;46321;48.398;11.754;2023-07-22T12:08:48;96503.19;;;27.35;28.21
60479;BME280;46321;48.398;11.754;2023-07-22T12:11:24;96491.66;;;27.13;28.06
60479;BME280;46321;48.398;11.754;2023-07-22T12:14:12;96491.50;;;26.99;27.96
60479;BME280;46321;48.398;11.754;2023-07-22T12:16:40;96487.84;;;27.19;28.65
60479;BME280;46321;48.398;11.754;2023-07-22T12:19:06;96485.31;;;27.28;28.78
60479;BME280;46321;48.398;11.754;2023-07-22T12:21:32;96477.41;;;27.32;28.92
60479;BME280;46321;48.398;11.754;2023-07-22T12:23:58;96484.25;;;27.54;28.79
60479;BME280;46321;48.398;11.754;2023-07-22T12:26:24;96483.78;;;27.47;27.38
60479;BME280;46321;48.398;11.754;2023-07-22T12:28:49;96477.75;;;27.20;28.39
60479;BME280;46321;48.398;11.754;2023-07-22T12:31:14;96482.22;;;27.40;27.62
60479;BME280;46321;48.398;11.754;2023-07-22T12:33:40;96480.59;;;27.39;28.23
60479;BME280;46321;48.398;11.754;2023-07-22T12:36:05;96479.16;;;27.17;27.22
60479;BME280;46321;48.398;11.754;2023-07-22T12:38:31;96469.03;;;27.28;28.15
60479;BME280;46321;48.398;11.754;2023-07-22T12:40:57;96466.16;;;27.44;27.82
60479;BME280;46321;48.398;11.754;2023-07-22T12:43:22;96454.81;;;27.37;27.87
60479;BME280;46321;48.398;11.754;2023-07-22T12:45:47;96464.16;;;27.25;27.92
60479;BME280;46321;48.398;11.754;2023-07-22T12:48:12;96460.47;;;27.05;28.42
60479;BME280;46321;48.398;11.754;2023-07-22T12:50:38;96460.94;;;27.18;29.21
60479;BME280;46321;48.398;11.754;2023-07-22T12:53:03;96462.50;;;27.24;28.36
60479;BME280;46321;48.398;11.754;2023-07-22T12:55:29;96453.00;;;27.27;28.88
60479;BME280;46321;48.398;11.754;2023-07-22T12:57:54;96444.84;;;27.27;27.61
60479;BME280;46321;48.398;11.754;2023-07-22T13:00:20;96457.66;;;27.21;28.40
60479;BME280;46321;48.398;11.754;2023-07-22T13:02:46;96452.72;;;27.28;27.50
60479;BME280;46321;48.398;11.754;2023-07-22T13:05:11;96443.72;;;26.93;26.11
60479;BME280;46321;48.398;11.754;2023-07-22T13:07:37;96452.34;;;27.11;26.72